createdAt,value
2022-08-28T00:00:11.255Z,101917.66
2022-08-28T00:02:38.031Z,101944.59
2022-08-28T00:05:06.096Z,101910.31
2022-08-28T00:07:34.649Z,101984.41
2022-08-28T00:10:01.224Z,101902.84
2022-08-28T00:12:27.733Z,101937.75
2022-08-28T00:14:54.226Z,101959.13
2022-08-28T00:17:20.758Z,101916.69
2022-08-28T00:19:47.461Z,101926.50
2022-08-28T00:22:14.070Z,101934.97
2022-08-28T00:24:44.534Z,102042.56
2022-08-28T00:27:29.655Z,101965.16
2022-08-28T00:29:56.192Z,101962.88
2022-08-28T00:32:25.843Z,101937.44
2022-08-28T00:34:52.424Z,101984.09
2022-08-28T00:37:19.032Z,101973.00
2022-08-28T00:39:48.928Z,101981.19
2022-08-28T00:42:15.364Z,101934.19
2022-08-28T00:44:41.859Z,101913.44
2022-08-28T00:47:08.632Z,101935.13
2022-08-28T00:49:38.164Z,101953.41
2022-08-28T00:52:11.944Z,101965.16
2022-08-28T00:54:56.886Z,101922.03
2022-08-28T00:57:31.604Z,101999.13
2022-08-28T00:59:58.257Z,101908.66
2022-08-28T01:02:29.297Z,101979.06
2022-08-28T01:04:58.159Z,101945.03
2022-08-28T01:07:24.768Z,101933.91
2022-08-28T01:09:54.081Z,102002.38
2022-08-28T01:12:23.342Z,101965.56
2022-08-28T01:14:51.044Z,102056.59
2022-08-28T01:17:30.729Z,101941.41
2022-08-28T01:20:02.892Z,101932.06
2022-08-28T01:22:38.998Z,101973.22
2022-08-28T01:25:13.238Z,101938.25
2022-08-28T01:27:45.473Z,101973.88
2022-08-28T01:30:24.543Z,101941.84
2022-08-28T01:32:57.845Z,101932.19
2022-08-28T01:35:29.967Z,102007.00
2022-08-28T01:38:04.682Z,101939.34
2022-08-28T01:40:38.026Z,101933.13
2022-08-28T01:43:14.596Z,101945.00
2022-08-28T01:45:48.547Z,101947.47
2022-08-28T01:48:18.864Z,101955.59
2022-08-28T01:50:45.691Z,101907.28
2022-08-28T01:53:15.210Z,101963.47
2022-08-28T01:55:45.483Z,101913.94
2022-08-28T01:58:12.780Z,101942.03
2022-08-28T02:00:43.137Z,101915.38
2022-08-28T02:03:17.999Z,101920.09
2022-08-28T02:05:46.801Z,101949.63
2022-08-28T02:08:19.887Z,101998.38
2022-08-28T02:10:47.133Z,101968.09
2022-08-28T02:13:16.644Z,101913.63
2022-08-28T02:15:44.220Z,101927.66
2022-08-28T02:18:14.552Z,102009.22
2022-08-28T02:20:42.930Z,101958.69
2022-08-28T02:23:12.461Z,102038.16
2022-08-28T02:25:39.532Z,101975.47
2022-08-28T02:28:12.798Z,101952.56
2022-08-28T02:30:42.022Z,101941.06
2022-08-28T02:33:08.693Z,101998.72
2022-08-28T02:35:38.016Z,101925.22
2022-08-28T02:38:07.037Z,101943.03
2022-08-28T02:40:37.067Z,101963.13
2022-08-28T02:43:16.244Z,101936.41
2022-08-28T02:45:45.729Z,101984.72
2022-08-28T02:48:17.640Z,101963.78
2022-08-28T02:50:46.188Z,101984.03
2022-08-28T02:53:16.903Z,101951.66
2022-08-28T02:55:44.828Z,102010.94
2022-08-28T02:58:11.487Z,101939.69
2022-08-28T03:00:38.102Z,101996.59
2022-08-28T03:03:05.281Z,102027.31
2022-08-28T03:05:31.769Z,101953.19
2022-08-28T03:07:59.492Z,101942.09
2022-08-28T03:10:28.483Z,101957.53
2022-08-28T03:12:55.011Z,101969.84
2022-08-28T03:15:21.763Z,101940.69
2022-08-28T03:17:50.844Z,101962.94
2022-08-28T03:20:27.342Z,101950.88
2022-08-28T03:23:12.267Z,101930.41
2022-08-28T03:25:40.966Z,101948.88
2022-08-28T03:28:07.422Z,101983.72
2022-08-28T03:30:35.980Z,102031.75
2022-08-28T03:33:09.865Z,102003.53
2022-08-28T03:35:37.574Z,102034.88
2022-08-28T03:38:05.034Z,101955.03
2022-08-28T03:40:33.832Z,101949.47
2022-08-28T03:43:12.630Z,101973.25
2022-08-28T03:45:43.107Z,102044.31
2022-08-28T03:48:14.214Z,101995.94
2022-08-28T03:50:45.386Z,102035.66
2022-08-28T03:53:15.564Z,102006.69
2022-08-28T03:55:48.980Z,101955.13
2022-08-28T03:58:19.919Z,102018.34
2022-08-28T04:00:46.360Z,102095.09
2022-08-28T04:03:21.021Z,102051.16
2022-08-28T04:05:50.187Z,102012.84
2022-08-28T04:08:33.322Z,102104.31
2022-08-28T04:11:00.954Z,101972.44
2022-08-28T04:13:45.488Z,102013.44
2022-08-28T04:16:26.265Z,102108.97
2022-08-28T04:19:07.964Z,102017.31
2022-08-28T04:21:38.088Z,102031.28
2022-08-28T04:24:17.775Z,102010.16
2022-08-28T04:26:46.414Z,102080.28
2022-08-28T04:29:18.002Z,102078.38
2022-08-28T04:31:49.355Z,102035.97
2022-08-28T04:34:18.866Z,102019.81
2022-08-28T04:37:04.517Z,102039.19
2022-08-28T04:39:59.530Z,102120.81
2022-08-28T04:42:44.828Z,102039.69
2022-08-28T04:45:26.035Z,102010.81
2022-08-28T04:48:05.379Z,102034.56
2022-08-28T04:50:43.565Z,102055.53
2022-08-28T04:53:43.820Z,102003.75
2022-08-28T04:56:17.588Z,102082.56
2022-08-28T05:01:47.660Z,102056.72
2022-08-28T05:04:33.766Z,102021.50
2022-08-28T05:07:21.101Z,102070.13
2022-08-28T05:10:00.654Z,102020.97
2022-08-28T05:12:49.076Z,102098.78
2022-08-28T05:15:21.604Z,102155.16
2022-08-28T05:18:07.764Z,102025.03
2022-08-28T05:20:55.435Z,102064.63
2022-08-28T05:23:54.796Z,102027.72
2022-08-28T05:26:40.431Z,102071.19
2022-08-28T05:29:35.934Z,102073.50
2022-08-28T05:32:14.246Z,102094.56
2022-08-28T05:34:46.747Z,102073.13
2022-08-28T05:37:33.032Z,102021.41
2022-08-28T05:40:05.948Z,102096.88
2022-08-28T05:42:51.470Z,102138.31
2022-08-28T05:45:32.640Z,102034.44
2022-08-28T05:48:26.943Z,102065.38
2022-08-28T05:51:40.554Z,102122.13
2022-08-28T05:54:17.572Z,102141.13
2022-08-28T05:56:51.614Z,102144.09
2022-08-28T05:59:44.687Z,102055.50
2022-08-28T06:02:54.762Z,102058.19
2022-08-28T06:08:58.131Z,102027.78
2022-08-28T06:11:24.601Z,102033.78
2022-08-28T06:13:53.831Z,102051.63
2022-08-28T06:17:23.445Z,102162.81
2022-08-28T06:20:01.278Z,102084.53
2022-08-28T06:22:51.705Z,102058.38
2022-08-28T06:25:48.834Z,102134.25
2022-08-28T06:28:43.922Z,102173.66
2022-08-28T06:34:55.490Z,102044.88
2022-08-28T06:38:28.808Z,102068.34
2022-08-28T06:41:03.488Z,102050.41
2022-08-28T06:43:36.297Z,102082.09
2022-08-28T06:46:17.809Z,102056.81
2022-08-28T06:48:57.004Z,102079.50
2022-08-28T06:52:03.170Z,102112.81
2022-08-28T06:54:34.256Z,102048.59
2022-08-28T07:04:00.508Z,102061.81
2022-08-28T07:06:53.858Z,102129.38
2022-08-28T07:10:04.001Z,102069.31
2022-08-28T07:16:21.612Z,102144.88
2022-08-28T07:19:14.018Z,102100.25
2022-08-28T07:22:13.105Z,102193.59
2022-08-28T07:24:56.029Z,102092.69
2022-08-28T07:27:54.837Z,102108.69
2022-08-28T07:31:01.642Z,102083.41
2022-08-28T07:36:58.602Z,102128.22
2022-08-28T07:39:45.881Z,102094.50
2022-08-28T07:42:40.318Z,102089.94
2022-08-28T07:45:07.077Z,102204.25
2022-08-28T07:47:33.576Z,102189.84
2022-08-28T07:50:01.420Z,102184.78
2022-08-28T07:52:28.155Z,102207.16
2022-08-28T07:54:55.349Z,102195.75
2022-08-28T07:57:22.906Z,102196.84
2022-08-28T07:59:50.022Z,102211.44
2022-08-28T08:02:16.584Z,102206.97
2022-08-28T08:04:42.972Z,102209.34
2022-08-28T08:07:09.606Z,102193.88
2022-08-28T08:09:38.101Z,102210.16
2022-08-28T08:12:05.618Z,102193.31
2022-08-28T08:14:32.263Z,102182.69
2022-08-28T08:17:02.159Z,102198.94
2022-08-28T08:19:28.583Z,102195.91
2022-08-28T08:21:55.788Z,102215.63
2022-08-28T08:24:25.836Z,102205.69
2022-08-28T08:26:59.501Z,102214.63
2022-08-28T08:29:28.451Z,102197.03
2022-08-28T08:32:02.659Z,102225.13
2022-08-28T08:34:29.089Z,102214.03
2022-08-28T08:36:55.589Z,102201.41
2022-08-28T08:39:22.051Z,102212.69
2022-08-28T08:41:59.838Z,102203.28
2022-08-28T08:44:36.181Z,102219.34
2022-08-28T08:47:35.048Z,102213.03
2022-08-28T08:50:17.873Z,102207.59
2022-08-28T08:52:58.105Z,102218.84
2022-08-28T08:55:50.268Z,102211.56
2022-08-28T08:58:47.684Z,102211.63
2022-08-28T09:01:52.024Z,102211.81
2022-08-28T09:05:33.585Z,102207.75
2022-08-28T09:12:06.813Z,102111.09
2022-08-28T09:15:34.064Z,102209.78
2022-08-28T09:20:02.541Z,102210.97
2022-08-28T09:22:22.925Z,102126.81
2022-08-28T09:25:15.500Z,102124.94
2022-08-28T09:28:15.209Z,102168.91
2022-08-28T09:37:33.331Z,102153.34
2022-08-28T09:44:02.323Z,102124.97
2022-08-28T09:56:31.166Z,102221.63
2022-08-28T10:01:48.951Z,102226.41
2022-08-28T10:07:54.904Z,102109.88
2022-08-28T10:11:29.557Z,102163.47
2022-08-28T10:14:38.314Z,102186.56
2022-08-28T10:17:52.678Z,102181.19
2022-08-28T10:24:54.616Z,102221.25
2022-08-28T10:29:36.386Z,102222.53
2022-08-28T10:38:26.129Z,102173.72
2022-08-28T10:42:19.293Z,102217.28
2022-08-28T10:45:46.246Z,102227.81
2022-08-28T10:49:24.701Z,102157.72
2022-08-28T10:56:16.928Z,102244.63
2022-08-28T11:03:35.662Z,102145.59
2022-08-28T11:10:05.454Z,102161.47
2022-08-28T11:13:48.220Z,102135.72
2022-08-28T11:20:49.455Z,102225.31
2022-08-28T11:25:56.712Z,102143.28
2022-08-28T12:11:41.837Z,102229.66
2022-08-28T13:45:20.667Z,102133.16
2022-08-28T13:48:39.481Z,102224.84
2022-08-28T13:52:15.490Z,102130.31
2022-08-28T13:55:21.306Z,102195.25
2022-08-28T13:58:15.243Z,102146.31
2022-08-28T14:02:02.436Z,102148.25
2022-08-28T14:08:45.643Z,102107.38
2022-08-28T14:11:44.049Z,102125.72
2022-08-28T14:14:40.195Z,102115.81
2022-08-28T14:21:16.641Z,102157.66
2022-08-28T14:27:30.933Z,102116.38
2022-08-28T14:33:49.431Z,102137.00
2022-08-28T14:40:14.373Z,102131.44
2022-08-28T14:42:59.638Z,102133.47
2022-08-28T14:56:45.123Z,102128.75
2022-08-28T14:59:43.988Z,102138.00
2022-08-28T15:23:22.005Z,102191.69
2022-08-28T15:25:48.176Z,102119.47
2022-08-28T15:40:34.629Z,102155.34
2022-08-28T16:06:43.662Z,102193.09
2022-08-28T16:33:14.171Z,102163.28
2022-08-28T16:40:20.513Z,102154.72
2022-08-28T17:36:42.554Z,102086.31
2022-08-28T17:48:06.934Z,102177.81
2022-08-28T17:53:35.267Z,102146.59
2022-08-28T18:00:52.465Z,102092.03
2022-08-28T18:05:14.137Z,102196.78
2022-08-28T18:12:01.240Z,102188.84
2022-08-28T18:19:20.043Z,102066.84
2022-08-28T18:22:50.896Z,102185.44
2022-08-28T18:30:37.930Z,102179.41
2022-08-28T18:41:45.655Z,102105.94
2022-08-28T18:43:48.751Z,102131.59
2022-08-28T18:47:31.403Z,102188.16
2022-08-28T18:50:18.038Z,102125.03
2022-08-28T18:53:10.360Z,102130.81
2022-08-28T18:55:39.653Z,102107.19
2022-08-28T18:58:16.916Z,102115.53
2022-08-28T19:01:03.428Z,102110.91
2022-08-28T19:03:30.606Z,102084.84
2022-08-28T19:06:22.647Z,102111.56
2022-08-28T19:08:59.581Z,102089.53
2022-08-28T19:18:40.329Z,102101.50
2022-08-28T19:21:37.665Z,102171.38
2022-08-28T19:37:24.769Z,102133.25
2022-08-28T19:40:48.872Z,102109.47
2022-08-28T19:43:53.802Z,102240.78
2022-08-28T19:50:08.155Z,102151.81
2022-08-28T19:53:29.670Z,102130.94
2022-08-28T19:56:02.973Z,102251.00
2022-08-28T19:59:18.657Z,102219.50
2022-08-28T20:02:43.191Z,102213.59
2022-08-28T20:23:56.962Z,102148.56
2022-08-28T20:36:28.382Z,102158.28
2022-08-28T20:39:21.143Z,102173.84
2022-08-28T20:45:34.082Z,102281.25
2022-08-28T20:52:23.828Z,102168.75
2022-08-28T20:55:33.987Z,102287.81
2022-08-28T20:59:11.275Z,102220.81
2022-08-28T21:01:59.872Z,102283.63
2022-08-28T21:05:57.890Z,102184.72
2022-08-28T21:11:57.641Z,102187.69
2022-08-28T21:24:23.786Z,102257.38
2022-08-28T21:27:12.864Z,102248.97
2022-08-28T21:29:41.630Z,102224.44
2022-08-28T21:32:33.832Z,102193.22
2022-08-28T21:35:16.990Z,102311.47
2022-08-28T21:37:46.694Z,102200.34
2022-08-28T21:40:35.278Z,102312.09
2022-08-28T21:43:07.033Z,102226.00
2022-08-28T21:45:45.469Z,102210.06
2022-08-28T21:48:17.660Z,102231.94
2022-08-28T21:50:54.257Z,102228.56
2022-08-28T21:53:27.220Z,102266.75
2022-08-28T21:56:04.882Z,102176.81
2022-08-28T21:58:36.062Z,102179.78
2022-08-28T22:01:35.221Z,102180.59
2022-08-28T22:04:26.749Z,102193.69
2022-08-28T22:06:57.211Z,102185.41
2022-08-28T22:09:31.403Z,102240.97
2022-08-28T22:15:48.630Z,102221.59
2022-08-28T22:18:33.986Z,102231.34
2022-08-28T22:21:30.016Z,102202.44
2022-08-28T22:24:15.590Z,102215.06
2022-08-28T22:26:57.456Z,102243.72
2022-08-28T22:29:42.027Z,102236.19
2022-08-28T22:32:13.731Z,102206.25
2022-08-28T22:34:49.379Z,102217.56
2022-08-28T22:37:32.850Z,102244.56
2022-08-28T22:40:17.059Z,102225.44
2022-08-28T22:42:43.978Z,102234.78
2022-08-28T22:45:21.469Z,102247.84
2022-08-28T22:47:55.018Z,102274.97
2022-08-28T22:50:38.371Z,102184.44
2022-08-28T22:53:20.802Z,102232.81
2022-08-28T22:55:57.721Z,102208.31
2022-08-28T22:58:33.004Z,102177.88
2022-08-28T23:01:08.252Z,102186.56
2022-08-28T23:04:03.313Z,102194.88
2022-08-28T23:06:34.950Z,102179.69
2022-08-28T23:09:06.415Z,102235.44
2022-08-28T23:11:42.186Z,102174.28
2022-08-28T23:14:11.026Z,102233.16
2022-08-28T23:16:52.484Z,102209.13
2022-08-28T23:19:28.576Z,102169.69
2022-08-28T23:21:59.870Z,102209.28
2022-08-28T23:24:38.117Z,102183.41
2022-08-28T23:27:35.483Z,102193.53
2022-08-28T23:30:06.848Z,102209.41
2022-08-28T23:32:41.300Z,102271.88
2022-08-28T23:35:30.462Z,102176.34
2022-08-28T23:37:59.609Z,102171.63
2022-08-28T23:40:28.774Z,102149.66
2022-08-28T23:42:59.256Z,102161.94
2022-08-28T23:45:30.656Z,102158.00
2022-08-28T23:48:11.074Z,102151.97
2022-08-28T23:50:42.308Z,102147.00
2022-08-28T23:53:12.121Z,102165.91
2022-08-28T23:55:50.871Z,102162.66
2022-08-28T23:58:20.629Z,102152.22
